sensor_id;sensor_type;location;lat;lon;timestamp;temperature;humidity
11264;DHT22;5689;48.798;9.070;2024-03-06T00:01:07;6.60;99.90
11264;DHT22;5689;48.798;9.070;2024-03-06T00:03:35;6.50;99.90
11264;DHT22;5689;48.798;9.070;2024-03-06T00:06:04;6.60;99.90
11264;DHT22;5689;48.798;9.070;2024-03-06T00:08:32;6.70;99.90
11264;DHT22;5689;48.798;9.070;2024-03-06T00:11:00;6.70;99.90
11264;DHT22;5689;48.798;9.070;2024-03-06T00:13:28;6.70;99.90
11264;DHT22;5689;48.798;9.070;2024-03-06T00:15:56;6.70;99.90
11264;DHT22;5689;48.798;9.070;2024-03-06T00:18:24;6.70;99.90
11264;DHT22;5689;48.798;9.070;2024-03-06T00:20:52;6.80;99.90
11264;DHT22;5689;48.798;9.070;2024-03-06T00:23:21;6.80;99.90
11264;DHT22;5689;48.798;9.070;2024-03-06T00:25:49;6.80;99.90
11264;DHT22;5689;48.798;9.070;2024-03-06T00:28:17;6.80;99.90
11264;DHT22;5689;48.798;9.070;2024-03-06T00:30:45;6.80;99.90
11264;DHT22;5689;48.798;9.070;2024-03-06T00:33:13;6.80;99.90
11264;DHT22;5689;48.798;9.070;2024-03-06T00:35:41;6.80;99.90
11264;DHT22;5689;48.798;9.070;2024-03-06T00:38:09;6.80;99.90
11264;DHT22;5689;48.798;9.070;2024-03-06T00:40:39;6.80;99.90
11264;DHT22;5689;48.798;9.070;2024-03-06T00:43:07;6.80;99.90
11264;DHT22;5689;48.798;9.070;2024-03-06T00:45:35;6.70;99.90
11264;DHT22;5689;48.798;9.070;2024-03-06T00:48:03;6.70;99.90
11264;DHT22;5689;48.798;9.070;2024-03-06T00:50:31;6.70;99.90
11264;DHT22;5689;48.798;9.070;2024-03-06T00:52:59;6.60;99.90
11264;DHT22;5689;48.798;9.070;2024-03-06T00:55:27;6.70;99.90
11264;DHT22;5689;48.798;9.070;2024-03-06T00:57:57;6.60;99.90
11264;DHT22;5689;48.798;9.070;2024-03-06T01:00:25;6.70;99.90
11264;DHT22;5689;48.798;9.070;2024-03-06T01:02:52;6.60;99.90
11264;DHT22;5689;48.798;9.070;2024-03-06T01:05:21;6.60;99.90
11264;DHT22;5689;48.798;9.070;2024-03-06T01:07:49;6.60;99.90
11264;DHT22;5689;48.798;9.070;2024-03-06T01:10:17;6.50;99.90
11264;DHT22;5689;48.798;9.070;2024-03-06T01:12:45;6.50;99.90
11264;DHT22;5689;48.798;9.070;2024-03-06T01:15:15;6.50;99.90
11264;DHT22;5689;48.798;9.070;2024-03-06T01:17:43;6.40;99.90
11264;DHT22;5689;48.798;9.070;2024-03-06T01:20:11;6.50;99.90
11264;DHT22;5689;48.798;9.070;2024-03-06T01:22:39;6.40;99.90
11264;DHT22;5689;48.798;9.070;2024-03-06T01:25:07;6.30;99.90
11264;DHT22;5689;48.798;9.070;2024-03-06T01:27:36;6.30;99.90
11264;DHT22;5689;48.798;9.070;2024-03-06T01:30:05;6.20;99.90
11264;DHT22;5689;48.798;9.070;2024-03-06T01:32:34;6.20;99.90
11264;DHT22;5689;48.798;9.070;2024-03-06T01:35:03;6.20;99.90
11264;DHT22;5689;48.798;9.070;2024-03-06T01:37:32;6.30;99.90
11264;DHT22;5689;48.798;9.070;2024-03-06T01:39:59;6.20;99.90
11264;DHT22;5689;48.798;9.070;2024-03-06T01:42:30;6.20;99.90
11264;DHT22;5689;48.798;9.070;2024-03-06T01:44:58;6.30;99.90
11264;DHT22;5689;48.798;9.070;2024-03-06T01:47:26;6.20;99.90
11264;DHT22;5689;48.798;9.070;2024-03-06T01:49:56;6.30;99.90
11264;DHT22;5689;48.798;9.070;2024-03-06T01:52:24;6.40;99.90
11264;DHT22;5689;48.798;9.070;2024-03-06T01:54:52;6.30;99.90
11264;DHT22;5689;48.798;9.070;2024-03-06T01:57:20;6.20;99.90
11264;DHT22;5689;48.798;9.070;2024-03-06T01:59:48;6.10;99.90
11264;DHT22;5689;48.798;9.070;2024-03-06T02:02:16;6.30;99.90
11264;DHT22;5689;48.798;9.070;2024-03-06T02:04:44;6.60;99.90
11264;DHT22;5689;48.798;9.070;2024-03-06T02:07:14;6.50;99.90
11264;DHT22;5689;48.798;9.070;2024-03-06T02:09:43;6.50;99.90
11264;DHT22;5689;48.798;9.070;2024-03-06T02:12:12;6.60;99.90
11264;DHT22;5689;48.798;9.070;2024-03-06T02:14:41;6.30;99.90
11264;DHT22;5689;48.798;9.070;2024-03-06T02:17:09;6.30;99.90
11264;DHT22;5689;48.798;9.070;2024-03-06T02:19:38;6.20;99.90
11264;DHT22;5689;48.798;9.070;2024-03-06T02:22:08;6.30;99.90
11264;DHT22;5689;48.798;9.070;2024-03-06T02:24:36;6.20;99.90
11264;DHT22;5689;48.798;9.070;2024-03-06T02:27:04;6.30;99.90
11264;DHT22;5689;48.798;9.070;2024-03-06T02:29:33;6.40;99.90
11264;DHT22;5689;48.798;9.070;2024-03-06T02:32:01;6.30;99.90
11264;DHT22;5689;48.798;9.070;2024-03-06T02:34:30;6.20;99.90
11264;DHT22;5689;48.798;9.070;2024-03-06T02:36:58;6.20;99.90
11264;DHT22;5689;48.798;9.070;2024-03-06T02:39:27;6.20;99.90
11264;DHT22;5689;48.798;9.070;2024-03-06T02:41:55;6.50;99.90
11264;DHT22;5689;48.798;9.070;2024-03-06T02:44:23;6.60;99.90
11264;DHT22;5689;48.798;9.070;2024-03-06T02:46:51;6.50;99.90
11264;DHT22;5689;48.798;9.070;2024-03-06T02:49:19;6.50;99.90
11264;DHT22;5689;48.798;9.070;2024-03-06T02:51:47;6.50;99.90
11264;DHT22;5689;48.798;9.070;2024-03-06T02:54:15;6.40;99.90
11264;DHT22;5689;48.798;9.070;2024-03-06T02:56:44;6.40;99.90
11264;DHT22;5689;48.798;9.070;2024-03-06T02:59:12;6.20;99.90
11264;DHT22;5689;48.798;9.070;2024-03-06T03:01:40;6.30;99.90
11264;DHT22;5689;48.798;9.070;2024-03-06T03:04:10;6.50;99.90
11264;DHT22;5689;48.798;9.070;2024-03-06T03:06:38;6.50;99.90
11264;DHT22;5689;48.798;9.070;2024-03-06T03:09:06;6.60;99.90
11264;DHT22;5689;48.798;9.070;2024-03-06T03:11:38;6.50;99.90
11264;DHT22;5689;48.798;9.070;2024-03-06T03:14:07;6.40;99.90
11264;DHT22;5689;48.798;9.070;2024-03-06T03:16:35;6.20;99.90
11264;DHT22;5689;48.798;9.070;2024-03-06T03:19:03;6.30;99.90
11264;DHT22;5689;48.798;9.070;2024-03-06T03:21:31;6.20;99.90
11264;DHT22;5689;48.798;9.070;2024-03-06T03:24:00;6.10;99.90
11264;DHT22;5689;48.798;9.070;2024-03-06T03:26:27;6.20;99.90
11264;DHT22;5689;48.798;9.070;2024-03-06T03:28:55;6.10;99.90
11264;DHT22;5689;48.798;9.070;2024-03-06T03:31:25;6.10;99.90
11264;DHT22;5689;48.798;9.070;2024-03-06T03:33:53;6.10;99.90
11264;DHT22;5689;48.798;9.070;2024-03-06T03:36:21;6.10;99.90
11264;DHT22;5689;48.798;9.070;2024-03-06T03:38:49;6.10;99.90
11264;DHT22;5689;48.798;9.070;2024-03-06T03:41:17;6.20;99.90
11264;DHT22;5689;48.798;9.070;2024-03-06T03:43:45;6.60;99.90
11264;DHT22;5689;48.798;9.070;2024-03-06T03:46:13;6.50;99.90
11264;DHT22;5689;48.798;9.070;2024-03-06T03:48:42;6.30;99.90
11264;DHT22;5689;48.798;9.070;2024-03-06T03:51:10;6.50;99.90
11264;DHT22;5689;48.798;9.070;2024-03-06T03:53:39;6.50;99.90
11264;DHT22;5689;48.798;9.070;2024-03-06T03:56:06;6.40;99.90
11264;DHT22;5689;48.798;9.070;2024-03-06T03:58:34;6.20;99.90
11264;DHT22;5689;48.798;9.070;2024-03-06T04:01:04;6.30;99.90
11264;DHT22;5689;48.798;9.070;2024-03-06T04:03:32;6.40;99.90
11264;DHT22;5689;48.798;9.070;2024-03-06T04:06:01;6.10;99.90
11264;DHT22;5689;48.798;9.070;2024-03-06T04:08:29;6.00;99.90
11264;DHT22;5689;48.798;9.070;2024-03-06T04:10:57;6.00;99.90
11264;DHT22;5689;48.798;9.070;2024-03-06T04:13:25;6.00;99.90
11264;DHT22;5689;48.798;9.070;2024-03-06T04:15:53;6.10;99.90
11264;DHT22;5689;48.798;9.070;2024-03-06T04:18:22;6.10;99.90
11264;DHT22;5689;48.798;9.070;2024-03-06T04:20:50;6.10;99.90
11264;DHT22;5689;48.798;9.070;2024-03-06T04:23:19;6.10;99.90
11264;DHT22;5689;48.798;9.070;2024-03-06T04:25:47;6.20;99.90
11264;DHT22;5689;48.798;9.070;2024-03-06T04:28:15;6.20;99.90
11264;DHT22;5689;48.798;9.070;2024-03-06T04:30:43;6.40;99.90
11264;DHT22;5689;48.798;9.070;2024-03-06T04:33:11;6.30;99.90
11264;DHT22;5689;48.798;9.070;2024-03-06T04:35:41;6.20;99.90
11264;DHT22;5689;48.798;9.070;2024-03-06T04:38:09;6.20;99.90
11264;DHT22;5689;48.798;9.070;2024-03-06T04:40:38;6.20;99.90
11264;DHT22;5689;48.798;9.070;2024-03-06T04:43:06;6.10;99.90
11264;DHT22;5689;48.798;9.070;2024-03-06T04:45:34;6.20;99.90
11264;DHT22;5689;48.798;9.070;2024-03-06T04:48:03;6.20;99.90
11264;DHT22;5689;48.798;9.070;2024-03-06T04:50:31;6.30;99.90
11264;DHT22;5689;48.798;9.070;2024-03-06T04:52:59;6.30;99.90
11264;DHT22;5689;48.798;9.070;2024-03-06T04:55:27;6.30;99.90
11264;DHT22;5689;48.798;9.070;2024-03-06T04:57:58;6.30;99.90
11264;DHT22;5689;48.798;9.070;2024-03-06T05:00:26;6.30;99.90
11264;DHT22;5689;48.798;9.070;2024-03-06T05:02:56;6.10;99.90
11264;DHT22;5689;48.798;9.070;2024-03-06T05:05:41;6.10;99.90
11264;DHT22;5689;48.798;9.070;2024-03-06T05:08:27;6.20;99.90
11264;DHT22;5689;48.798;9.070;2024-03-06T05:11:13;6.30;99.90
11264;DHT22;5689;48.798;9.070;2024-03-06T05:14:00;6.30;99.90
11264;DHT22;5689;48.798;9.070;2024-03-06T05:16:46;6.30;99.90
11264;DHT22;5689;48.798;9.070;2024-03-06T05:19:31;6.30;99.90
11264;DHT22;5689;48.798;9.070;2024-03-06T05:22:17;6.20;99.90
11264;DHT22;5689;48.798;9.070;2024-03-06T05:25:03;6.30;99.90
11264;DHT22;5689;48.798;9.070;2024-03-06T05:27:49;6.20;99.90
11264;DHT22;5689;48.798;9.070;2024-03-06T05:30:36;6.20;99.90
11264;DHT22;5689;48.798;9.070;2024-03-06T05:33:22;6.10;99.90
11264;DHT22;5689;48.798;9.070;2024-03-06T05:36:07;6.10;99.90
11264;DHT22;5689;48.798;9.070;2024-03-06T05:38:52;6.10;99.90
11264;DHT22;5689;48.798;9.070;2024-03-06T05:41:38;6.10;99.90
11264;DHT22;5689;48.798;9.070;2024-03-06T05:44:23;6.20;99.90
11264;DHT22;5689;48.798;9.070;2024-03-06T05:47:10;6.20;99.90
11264;DHT22;5689;48.798;9.070;2024-03-06T05:49:55;6.10;99.90
11264;DHT22;5689;48.798;9.070;2024-03-06T05:52:40;6.20;99.90
11264;DHT22;5689;48.798;9.070;2024-03-06T05:55:26;6.20;99.90
11264;DHT22;5689;48.798;9.070;2024-03-06T05:58:11;6.20;99.90
11264;DHT22;5689;48.798;9.070;2024-03-06T06:00:41;6.20;99.90
11264;DHT22;5689;48.798;9.070;2024-03-06T06:03:10;6.20;99.90
11264;DHT22;5689;48.798;9.070;2024-03-06T06:05:38;6.10;99.90
11264;DHT22;5689;48.798;9.070;2024-03-06T06:08:07;6.00;99.90
11264;DHT22;5689;48.798;9.070;2024-03-06T06:10:36;6.10;99.90
11264;DHT22;5689;48.798;9.070;2024-03-06T06:13:04;6.10;99.90
11264;DHT22;5689;48.798;9.070;2024-03-06T06:15:32;6.10;99.90
11264;DHT22;5689;48.798;9.070;2024-03-06T06:18:00;6.10;99.90
11264;DHT22;5689;48.798;9.070;2024-03-06T06:20:29;6.20;99.90
11264;DHT22;5689;48.798;9.070;2024-03-06T06:22:57;6.20;99.90
11264;DHT22;5689;48.798;9.070;2024-03-06T06:25:25;6.10;99.90
11264;DHT22;5689;48.798;9.070;2024-03-06T06:27:53;6.20;99.90
11264;DHT22;5689;48.798;9.070;2024-03-06T06:30:21;6.20;99.90
11264;DHT22;5689;48.798;9.070;2024-03-06T06:32:49;6.20;99.90
11264;DHT22;5689;48.798;9.070;2024-03-06T06:35:18;6.30;99.90
11264;DHT22;5689;48.798;9.070;2024-03-06T06:37:47;6.20;99.90
11264;DHT22;5689;48.798;9.070;2024-03-06T06:40:15;6.20;99.90
11264;DHT22;5689;48.798;9.070;2024-03-06T06:42:48;6.20;99.90
11264;DHT22;5689;48.798;9.070;2024-03-06T06:45:17;6.40;99.90
11264;DHT22;5689;48.798;9.070;2024-03-06T06:47:45;6.40;99.90
11264;DHT22;5689;48.798;9.070;2024-03-06T06:50:13;6.40;99.90
11264;DHT22;5689;48.798;9.070;2024-03-06T06:52:42;6.50;99.90
11264;DHT22;5689;48.798;9.070;2024-03-06T06:55:11;6.30;99.90
11264;DHT22;5689;48.798;9.070;2024-03-06T06:57:40;6.30;99.90
11264;DHT22;5689;48.798;9.070;2024-03-06T07:00:08;6.30;99.90
11264;DHT22;5689;48.798;9.070;2024-03-06T07:02:38;6.20;99.90
11264;DHT22;5689;48.798;9.070;2024-03-06T07:05:09;6.10;99.90
11264;DHT22;5689;48.798;9.070;2024-03-06T07:07:38;6.20;99.90
11264;DHT22;5689;48.798;9.070;2024-03-06T07:10:06;6.20;99.90
11264;DHT22;5689;48.798;9.070;2024-03-06T07:12:36;6.20;99.90
11264;DHT22;5689;48.798;9.070;2024-03-06T07:15:05;6.20;99.90
11264;DHT22;5689;48.798;9.070;2024-03-06T07:17:34;6.20;99.90
11264;DHT22;5689;48.798;9.070;2024-03-06T07:20:02;6.20;99.90
11264;DHT22;5689;48.798;9.070;2024-03-06T07:22:32;6.30;99.90
11264;DHT22;5689;48.798;9.070;2024-03-06T07:25:00;6.30;99.90
11264;DHT22;5689;48.798;9.070;2024-03-06T07:27:29;6.20;99.90
11264;DHT22;5689;48.798;9.070;2024-03-06T07:29:58;6.20;99.90
11264;DHT22;5689;48.798;9.070;2024-03-06T07:32:26;6.20;99.90
11264;DHT22;5689;48.798;9.070;2024-03-06T07:34:54;6.30;99.90
11264;DHT22;5689;48.798;9.070;2024-03-06T07:37:22;6.20;99.90
11264;DHT22;5689;48.798;9.070;2024-03-06T07:39:50;6.00;99.90
11264;DHT22;5689;48.798;9.070;2024-03-06T07:42:19;5.90;99.90
11264;DHT22;5689;48.798;9.070;2024-03-06T07:44:47;5.90;99.90
11264;DHT22;5689;48.798;9.070;2024-03-06T07:47:17;6.00;99.90
11264;DHT22;5689;48.798;9.070;2024-03-06T07:49:45;6.10;99.90
11264;DHT22;5689;48.798;9.070;2024-03-06T07:52:16;6.10;99.90
11264;DHT22;5689;48.798;9.070;2024-03-06T07:54:45;6.20;99.90
11264;DHT22;5689;48.798;9.070;2024-03-06T07:57:13;6.20;99.90
11264;DHT22;5689;48.798;9.070;2024-03-06T07:59:41;6.20;99.90
11264;DHT22;5689;48.798;9.070;2024-03-06T08:02:09;6.20;99.90
11264;DHT22;5689;48.798;9.070;2024-03-06T08:04:38;6.10;99.90
11264;DHT22;5689;48.798;9.070;2024-03-06T08:07:06;6.10;99.90
11264;DHT22;5689;48.798;9.070;2024-03-06T08:09:34;6.20;99.90
11264;DHT22;5689;48.798;9.070;2024-03-06T08:12:02;6.30;99.90
11264;DHT22;5689;48.798;9.070;2024-03-06T08:14:30;6.30;99.90
11264;DHT22;5689;48.798;9.070;2024-03-06T08:16:58;6.30;99.90
11264;DHT22;5689;48.798;9.070;2024-03-06T08:19:26;6.40;99.90
11264;DHT22;5689;48.798;9.070;2024-03-06T08:21:55;6.30;99.90
11264;DHT22;5689;48.798;9.070;2024-03-06T08:24:23;6.40;99.90
11264;DHT22;5689;48.798;9.070;2024-03-06T08:26:51;6.30;99.90
11264;DHT22;5689;48.798;9.070;2024-03-06T08:29:19;6.30;99.90
11264;DHT22;5689;48.798;9.070;2024-03-06T08:31:47;6.30;99.90
11264;DHT22;5689;48.798;9.070;2024-03-06T08:34:15;6.20;99.90
11264;DHT22;5689;48.798;9.070;2024-03-06T08:36:44;6.30;99.90
11264;DHT22;5689;48.798;9.070;2024-03-06T08:39:13;6.40;99.90
11264;DHT22;5689;48.798;9.070;2024-03-06T08:41:43;6.40;99.90
11264;DHT22;5689;48.798;9.070;2024-03-06T08:44:11;6.30;99.90
11264;DHT22;5689;48.798;9.070;2024-03-06T08:46:39;6.40;99.90
11264;DHT22;5689;48.798;9.070;2024-03-06T08:49:06;6.30;99.90
11264;DHT22;5689;48.798;9.070;2024-03-06T08:51:35;6.30;99.90
11264;DHT22;5689;48.798;9.070;2024-03-06T08:54:03;6.20;99.90
11264;DHT22;5689;48.798;9.070;2024-03-06T08:56:32;6.10;99.90
11264;DHT22;5689;48.798;9.070;2024-03-06T08:59:01;6.10;99.90
11264;DHT22;5689;48.798;9.070;2024-03-06T09:01:30;6.10;99.90
11264;DHT22;5689;48.798;9.070;2024-03-06T09:03:58;6.20;99.90
11264;DHT22;5689;48.798;9.070;2024-03-06T09:06:26;6.20;99.90
11264;DHT22;5689;48.798;9.070;2024-03-06T09:08:55;6.10;99.90
11264;DHT22;5689;48.798;9.070;2024-03-06T09:11:23;6.10;99.90
11264;DHT22;5689;48.798;9.070;2024-03-06T09:13:52;6.10;99.90
11264;DHT22;5689;48.798;9.070;2024-03-06T09:16:20;6.20;99.90
11264;DHT22;5689;48.798;9.070;2024-03-06T09:18:48;6.30;99.90
11264;DHT22;5689;48.798;9.070;2024-03-06T09:21:16;6.40;99.90
11264;DHT22;5689;48.798;9.070;2024-03-06T09:23:44;6.50;99.90
11264;DHT22;5689;48.798;9.070;2024-03-06T09:26:12;6.50;99.90
11264;DHT22;5689;48.798;9.070;2024-03-06T09:28:39;6.60;99.90
11264;DHT22;5689;48.798;9.070;2024-03-06T09:31:09;6.60;99.90
11264;DHT22;5689;48.798;9.070;2024-03-06T09:33:38;6.60;99.90
11264;DHT22;5689;48.798;9.070;2024-03-06T09:36:10;6.40;99.90
11264;DHT22;5689;48.798;9.070;2024-03-06T09:38:40;6.40;99.90
11264;DHT22;5689;48.798;9.070;2024-03-06T09:41:08;6.40;99.90
11264;DHT22;5689;48.798;9.070;2024-03-06T09:43:36;6.30;99.90
11264;DHT22;5689;48.798;9.070;2024-03-06T09:46:04;6.20;99.90
11264;DHT22;5689;48.798;9.070;2024-03-06T09:48:34;6.30;99.90
11264;DHT22;5689;48.798;9.070;2024-03-06T09:51:03;6.30;99.90
11264;DHT22;5689;48.798;9.070;2024-03-06T09:53:32;6.40;99.90
11264;DHT22;5689;48.798;9.070;2024-03-06T09:56:00;6.40;99.90
11264;DHT22;5689;48.798;9.070;2024-03-06T09:58:28;6.40;99.90
11264;DHT22;5689;48.798;9.070;2024-03-06T10:00:58;6.40;99.90
11264;DHT22;5689;48.798;9.070;2024-03-06T10:03:27;6.40;99.90
11264;DHT22;5689;48.798;9.070;2024-03-06T10:05:56;6.50;99.90
11264;DHT22;5689;48.798;9.070;2024-03-06T10:08:25;6.60;99.90
11264;DHT22;5689;48.798;9.070;2024-03-06T10:10:54;6.50;99.90
11264;DHT22;5689;48.798;9.070;2024-03-06T10:13:24;6.50;99.90
11264;DHT22;5689;48.798;9.070;2024-03-06T10:15:56;6.50;99.90
11264;DHT22;5689;48.798;9.070;2024-03-06T10:18:27;6.40;99.90
11264;DHT22;5689;48.798;9.070;2024-03-06T10:20:57;6.50;99.90
11264;DHT22;5689;48.798;9.070;2024-03-06T10:23:25;6.50;99.90
11264;DHT22;5689;48.798;9.070;2024-03-06T10:25:55;6.50;99.90
11264;DHT22;5689;48.798;9.070;2024-03-06T10:28:23;6.80;99.90
11264;DHT22;5689;48.798;9.070;2024-03-06T10:30:51;6.90;99.90
11264;DHT22;5689;48.798;9.070;2024-03-06T10:33:31;7.00;99.90
11264;DHT22;5689;48.798;9.070;2024-03-06T10:36:00;6.90;99.90
11264;DHT22;5689;48.798;9.070;2024-03-06T10:38:35;6.90;99.90
11264;DHT22;5689;48.798;9.070;2024-03-06T10:41:04;7.00;99.90
11264;DHT22;5689;48.798;9.070;2024-03-06T10:43:34;7.00;99.90
11264;DHT22;5689;48.798;9.070;2024-03-06T10:46:06;7.00;99.90
11264;DHT22;5689;48.798;9.070;2024-03-06T10:48:40;6.90;99.90
11264;DHT22;5689;48.798;9.070;2024-03-06T10:51:10;7.00;99.90
11264;DHT22;5689;48.798;9.070;2024-03-06T10:53:42;6.90;99.90
11264;DHT22;5689;48.798;9.070;2024-03-06T10:56:10;6.80;99.90
11264;DHT22;5689;48.798;9.070;2024-03-06T10:58:40;6.80;99.90
11264;DHT22;5689;48.798;9.070;2024-03-06T11:01:09;6.80;99.90
11264;DHT22;5689;48.798;9.070;2024-03-06T11:03:39;6.70;99.90
11264;DHT22;5689;48.798;9.070;2024-03-06T11:06:09;6.60;99.90
11264;DHT22;5689;48.798;9.070;2024-03-06T11:08:37;6.70;99.90
11264;DHT22;5689;48.798;9.070;2024-03-06T11:11:21;6.80;99.90
11264;DHT22;5689;48.798;9.070;2024-03-06T11:13:49;6.90;99.90
11264;DHT22;5689;48.798;9.070;2024-03-06T11:16:17;6.80;99.90
11264;DHT22;5689;48.798;9.070;2024-03-06T11:18:45;6.80;99.90
11264;DHT22;5689;48.798;9.070;2024-03-06T11:21:36;6.80;99.90
11264;DHT22;5689;48.798;9.070;2024-03-06T11:24:17;7.00;99.90
11264;DHT22;5689;48.798;9.070;2024-03-06T11:26:47;6.90;99.90
11264;DHT22;5689;48.798;9.070;2024-03-06T11:29:18;6.70;99.90
11264;DHT22;5689;48.798;9.070;2024-03-06T11:32:05;6.70;99.90
11264;DHT22;5689;48.798;9.070;2024-03-06T11:34:35;6.80;99.90
11264;DHT22;5689;48.798;9.070;2024-03-06T11:37:05;6.80;99.90
11264;DHT22;5689;48.798;9.070;2024-03-06T11:39:37;6.80;99.90
11264;DHT22;5689;48.798;9.070;2024-03-06T11:42:06;6.80;99.90
11264;DHT22;5689;48.798;9.070;2024-03-06T11:44:36;6.80;99.90
11264;DHT22;5689;48.798;9.070;2024-03-06T11:47:05;6.80;99.90
11264;DHT22;5689;48.798;9.070;2024-03-06T11:49:35;6.70;99.90
11264;DHT22;5689;48.798;9.070;2024-03-06T11:52:06;6.70;99.90
11264;DHT22;5689;48.798;9.070;2024-03-06T11:54:36;6.70;99.90
11264;DHT22;5689;48.798;9.070;2024-03-06T11:57:05;6.80;99.90
11264;DHT22;5689;48.798;9.070;2024-03-06T11:59:34;6.80;99.90
11264;DHT22;5689;48.798;9.070;2024-03-06T12:02:05;6.80;99.90
11264;DHT22;5689;48.798;9.070;2024-03-06T12:04:35;6.80;99.90
11264;DHT22;5689;48.798;9.070;2024-03-06T12:07:06;6.60;99.90
11264;DHT22;5689;48.798;9.070;2024-03-06T12:09:38;6.50;99.90
11264;DHT22;5689;48.798;9.070;2024-03-06T12:12:07;6.50;99.90
11264;DHT22;5689;48.798;9.070;2024-03-06T12:14:36;6.50;99.90
11264;DHT22;5689;48.798;9.070;2024-03-06T12:17:05;6.40;99.90
11264;DHT22;5689;48.798;9.070;2024-03-06T12:19:35;6.50;99.90
11264;DHT22;5689;48.798;9.070;2024-03-06T12:22:05;6.50;99.90
11264;DHT22;5689;48.798;9.070;2024-03-06T12:24:33;6.50;99.90
11264;DHT22;5689;48.798;9.070;2024-03-06T12:27:03;6.50;99.90
11264;DHT22;5689;48.798;9.070;2024-03-06T12:29:32;6.50;99.90
11264;DHT22;5689;48.798;9.070;2024-03-06T12:32:01;6.60;99.90
11264;DHT22;5689;48.798;9.070;2024-03-06T12:34:29;6.70;99.90
11264;DHT22;5689;48.798;9.070;2024-03-06T12:37:09;6.70;99.90
11264;DHT22;5689;48.798;9.070;2024-03-06T12:39:37;6.70;99.90
11264;DHT22;5689;48.798;9.070;2024-03-06T12:42:07;6.70;99.90
11264;DHT22;5689;48.798;9.070;2024-03-06T12:44:35;6.70;99.90
11264;DHT22;5689;48.798;9.070;2024-03-06T12:47:03;6.80;99.90
11264;DHT22;5689;48.798;9.070;2024-03-06T12:49:33;6.80;99.90
11264;DHT22;5689;48.798;9.070;2024-03-06T12:52:01;6.70;99.90
11264;DHT22;5689;48.798;9.070;2024-03-06T12:54:32;6.80;99.90
11264;DHT22;5689;48.798;9.070;2024-03-06T12:57:00;6.70;99.90
11264;DHT22;5689;48.798;9.070;2024-03-06T12:59:28;6.70;99.90
11264;DHT22;5689;48.798;9.070;2024-03-06T13:01:56;6.60;99.90
11264;DHT22;5689;48.798;9.070;2024-03-06T13:04:24;6.70;99.90
11264;DHT22;5689;48.798;9.070;2024-03-06T13:06:52;6.70;99.90
11264;DHT22;5689;48.798;9.070;2024-03-06T13:09:20;6.70;99.90
11264;DHT22;5689;48.798;9.070;2024-03-06T13:11:51;6.70;99.90
11264;DHT22;5689;48.798;9.070;2024-03-06T13:14:19;6.60;99.90
11264;DHT22;5689;48.798;9.070;2024-03-06T13:16:47;6.60;99.90
11264;DHT22;5689;48.798;9.070;2024-03-06T13:19:15;6.60;99.90
11264;DHT22;5689;48.798;9.070;2024-03-06T13:21:43;6.60;99.90
11264;DHT22;5689;48.798;9.070;2024-03-06T13:24:11;6.60;99.90
11264;DHT22;5689;48.798;9.070;2024-03-06T13:26:39;6.50;99.90
11264;DHT22;5689;48.798;9.070;2024-03-06T13:29:08;6.60;99.90
11264;DHT22;5689;48.798;9.070;2024-03-06T13:31:36;6.60;99.90
11264;DHT22;5689;48.798;9.070;2024-03-06T13:34:04;6.50;99.90
11264;DHT22;5689;48.798;9.070;2024-03-06T13:36:32;6.60;99.90
11264;DHT22;5689;48.798;9.070;2024-03-06T13:39:00;6.70;99.90
11264;DHT22;5689;48.798;9.070;2024-03-06T13:41:28;6.60;99.90
11264;DHT22;5689;48.798;9.070;2024-03-06T13:43:56;6.70;99.90
11264;DHT22;5689;48.798;9.070;2024-03-06T13:46:25;6.70;99.90
11264;DHT22;5689;48.798;9.070;2024-03-06T13:48:53;6.80;99.90
11264;DHT22;5689;48.798;9.070;2024-03-06T13:51:21;6.90;99.90
11264;DHT22;5689;48.798;9.070;2024-03-06T13:53:49;6.90;99.90
11264;DHT22;5689;48.798;9.070;2024-03-06T13:56:17;6.90;99.90
11264;DHT22;5689;48.798;9.070;2024-03-06T13:58:46;6.90;99.90
11264;DHT22;5689;48.798;9.070;2024-03-06T14:01:14;6.90;99.90
11264;DHT22;5689;48.798;9.070;2024-03-06T14:03:43;6.80;99.90
11264;DHT22;5689;48.798;9.070;2024-03-06T14:06:11;6.80;99.90
11264;DHT22;5689;48.798;9.070;2024-03-06T14:08:39;6.80;99.90
11264;DHT22;5689;48.798;9.070;2024-03-06T14:11:08;6.80;99.90
11264;DHT22;5689;48.798;9.070;2024-03-06T14:13:36;6.80;99.90
11264;DHT22;5689;48.798;9.070;2024-03-06T14:16:04;6.80;99.90
11264;DHT22;5689;48.798;9.070;2024-03-06T14:18:32;6.90;99.90
11264;DHT22;5689;48.798;9.070;2024-03-06T14:21:02;6.80;99.90
11264;DHT22;5689;48.798;9.070;2024-03-06T14:23:30;6.80;99.90
11264;DHT22;5689;48.798;9.070;2024-03-06T14:25:58;6.80;99.90
11264;DHT22;5689;48.798;9.070;2024-03-06T14:28:28;6.80;99.90
11264;DHT22;5689;48.798;9.070;2024-03-06T14:30:56;6.90;99.90
11264;DHT22;5689;48.798;9.070;2024-03-06T14:33:24;6.90;99.90
11264;DHT22;5689;48.798;9.070;2024-03-06T14:35:52;6.90;99.90
11264;DHT22;5689;48.798;9.070;2024-03-06T14:38:22;6.90;99.90
11264;DHT22;5689;48.798;9.070;2024-03-06T14:40:50;6.90;99.90
11264;DHT22;5689;48.798;9.070;2024-03-06T14:43:17;6.90;99.90
11264;DHT22;5689;48.798;9.070;2024-03-06T14:45:45;6.80;99.90
11264;DHT22;5689;48.798;9.070;2024-03-06T14:48:14;6.80;99.90
11264;DHT22;5689;48.798;9.070;2024-03-06T14:50:42;6.80;99.90
11264;DHT22;5689;48.798;9.070;2024-03-06T14:53:10;6.80;99.90
11264;DHT22;5689;48.798;9.070;2024-03-06T14:55:40;6.80;99.90
11264;DHT22;5689;48.798;9.070;2024-03-06T14:58:08;6.80;99.90
11264;DHT22;5689;48.798;9.070;2024-03-06T15:00:36;6.80;99.90
11264;DHT22;5689;48.798;9.070;2024-03-06T15:03:04;6.70;99.90
11264;DHT22;5689;48.798;9.070;2024-03-06T15:05:35;6.80;99.90
11264;DHT22;5689;48.798;9.070;2024-03-06T15:08:03;6.70;99.90
11264;DHT22;5689;48.798;9.070;2024-03-06T15:10:31;6.80;99.90
11264;DHT22;5689;48.798;9.070;2024-03-06T15:13:01;6.80;99.90
11264;DHT22;5689;48.798;9.070;2024-03-06T15:15:29;6.80;99.90
11264;DHT22;5689;48.798;9.070;2024-03-06T15:17:58;6.90;99.90
11264;DHT22;5689;48.798;9.070;2024-03-06T15:20:26;6.90;99.90
11264;DHT22;5689;48.798;9.070;2024-03-06T15:22:55;6.90;99.90
11264;DHT22;5689;48.798;9.070;2024-03-06T15:25:23;6.80;99.90
11264;DHT22;5689;48.798;9.070;2024-03-06T15:27:51;6.80;99.90
11264;DHT22;5689;48.798;9.070;2024-03-06T15:30:20;6.80;99.90
11264;DHT22;5689;48.798;9.070;2024-03-06T15:32:48;6.80;99.90
11264;DHT22;5689;48.798;9.070;2024-03-06T15:35:17;6.80;99.90
11264;DHT22;5689;48.798;9.070;2024-03-06T15:37:45;6.90;99.90
11264;DHT22;5689;48.798;9.070;2024-03-06T15:40:12;6.90;99.90
11264;DHT22;5689;48.798;9.070;2024-03-06T15:42:41;6.80;99.90
11264;DHT22;5689;48.798;9.070;2024-03-06T15:45:11;6.80;99.90
11264;DHT22;5689;48.798;9.070;2024-03-06T15:47:40;6.80;99.90
11264;DHT22;5689;48.798;9.070;2024-03-06T15:50:10;6.80;99.90
11264;DHT22;5689;48.798;9.070;2024-03-06T15:52:38;6.80;99.90
11264;DHT22;5689;48.798;9.070;2024-03-06T15:55:07;6.90;99.90
11264;DHT22;5689;48.798;9.070;2024-03-06T15:57:36;6.80;99.90
11264;DHT22;5689;48.798;9.070;2024-03-06T16:00:05;6.80;99.90
11264;DHT22;5689;48.798;9.070;2024-03-06T16:02:34;6.90;99.90
11264;DHT22;5689;48.798;9.070;2024-03-06T16:05:04;6.80;99.90
11264;DHT22;5689;48.798;9.070;2024-03-06T16:07:35;6.80;99.90
11264;DHT22;5689;48.798;9.070;2024-03-06T16:10:06;6.80;99.90
11264;DHT22;5689;48.798;9.070;2024-03-06T16:12:34;6.80;99.90
11264;DHT22;5689;48.798;9.070;2024-03-06T16:15:02;6.80;99.90
11264;DHT22;5689;48.798;9.070;2024-03-06T16:17:30;6.80;99.90